Time;durP1;ratioP1;P1;durP2;ratioP2;P2;SDS_P1;SDS_P2;PMS_P1;PMS_P2;Temp;Humidity;BMP_temperature;BMP_pressure;BME280_temperature;BME280_humidity;BME280_pressure;Samples;Min_cycle;Max_cycle;Signal;HPM_P1;HPM_P2
2023/03/31 00:01:34;;;;;;;11.80;2.00;;;;;;;9.16;100.00;100228.94;4996641;28;20041;-86
2023/03/31 00:04:03;;;;;;;9.30;2.20;;;;;;;9.17;100.00;100214.34;4979495;28;20111;-86
2023/03/31 00:06:31;;;;;;;9.77;2.38;;;;;;;9.15;100.00;100208.34;4995738;28;20033;-86
2023/03/31 00:09:00;;;;;;;7.53;2.65;;;;;;;9.12;100.00;100202.34;4995474;28;20021;-86
2023/03/31 00:11:26;;;;;;;10.70;2.00;;;;;;;9.11;100.00;100199.84;4980129;28;20442;-86
2023/03/31 00:13:52;;;;;;;8.82;1.70;;;;;;;9.10;100.00;100184.66;4996077;28;20382;-86
2023/03/31 00:16:17;;;;;;;8.90;1.70;;;;;;;9.09;100.00;100175.72;4996054;28;20052;-86
2023/03/31 00:18:49;;;;;;;10.70;2.05;;;;;;;9.06;100.00;100170.72;4996546;28;20520;-86
2023/03/31 00:21:23;;;;;;;11.68;2.60;;;;;;;9.04;100.00;100166.59;4998235;28;20036;-86
2023/03/31 00:23:54;;;;;;;9.50;2.10;;;;;;;9.03;100.00;100162.22;4999525;28;20100;-86
2023/03/31 00:26:21;;;;;;;7.60;1.85;;;;;;;9.00;100.00;100151.84;5015589;28;20025;-87
2023/03/31 00:28:47;;;;;;;7.95;1.60;;;;;;;8.99;100.00;100147.47;4999059;28;20092;-86
2023/03/31 00:31:13;;;;;;;8.15;1.35;;;;;;;8.97;100.00;100152.28;4983047;28;20482;-86
2023/03/31 00:33:38;;;;;;;6.87;1.70;;;;;;;8.95;100.00;100145.22;4999045;28;20041;-86
2023/03/31 00:36:04;;;;;;;8.77;1.50;;;;;;;8.92;100.00;100140.25;4982533;28;20033;-86
2023/03/31 00:38:30;;;;;;;6.63;1.65;;;;;;;8.93;100.00;100133.81;4982598;28;20042;-86
2023/03/31 00:41:00;;;;;;;11.48;1.90;;;;;;;8.91;100.00;100132.38;4999011;28;20048;-86
2023/03/31 00:43:29;;;;;;;11.77;1.77;;;;;;;8.91;100.00;100121.53;4998321;28;20394;-87
2023/03/31 00:46:03;;;;;;;13.45;2.42;;;;;;;8.93;100.00;100112.16;4998687;28;20079;-86
2023/03/31 00:48:29;;;;;;;8.02;1.50;;;;;;;8.93;100.00;100120.28;5016401;28;20074;-87
2023/03/31 00:50:56;;;;;;;6.30;1.80;;;;;;;8.93;100.00;100114.00;4998539;28;20054;-86
2023/03/31 00:53:28;;;;;;;11.13;1.77;;;;;;;8.98;100.00;100116.09;4998418;28;20482;-86
2023/03/31 00:55:59;;;;;;;14.15;1.65;;;;;;;8.95;100.00;100104.63;4998945;28;20030;-86
2023/03/31 00:58:28;;;;;;;12.35;1.55;;;;;;;8.96;100.00;100102.75;4998726;28;20110;-86
2023/03/31 01:00:56;;;;;;;13.48;2.28;;;;;;;8.95;100.00;100093.00;4999359;28;20485;-86
2023/03/31 01:03:22;;;;;;;7.68;1.50;;;;;;;8.98;100.00;100097.16;4998786;28;20065;-86
2023/03/31 01:05:59;;;;;;;5.67;1.87;;;;;;;8.95;100.00;100101.94;5015584;28;20152;-86
2023/03/31 01:08:26;;;;;;;11.43;1.70;;;;;;;8.98;100.00;100091.72;4999280;28;20035;-87
2023/03/31 01:10:55;;;;;;;9.90;1.60;;;;;;;9.00;100.00;100087.72;4998013;28;20026;-86
2023/03/31 01:13:22;;;;;;;7.97;1.67;;;;;;;9.00;100.00;100087.72;4998270;28;20393;-87
2023/03/31 01:15:53;;;;;;;11.83;1.57;;;;;;;9.06;100.00;100076.00;4998178;28;20022;-87
2023/03/31 01:18:20;;;;;;;13.85;2.13;;;;;;;9.06;100.00;100069.78;4982730;28;20037;-87
2023/03/31 01:20:52;;;;;;;14.20;1.80;;;;;;;9.08;100.00;100073.06;4998377;28;20458;-87
2023/03/31 01:23:42;;;;;;;11.32;1.83;;;;;;;9.06;100.00;100069.78;4998563;28;20088;-87
2023/03/31 01:26:39;;;;;;;10.00;1.60;;;;;;;9.07;100.00;100061.44;4998734;28;20041;-87
2023/03/31 01:29:38;;;;;;;10.20;1.50;;;;;;;9.08;100.00;100054.13;4997737;28;20124;-87
2023/03/31 01:32:31;;;;;;;10.82;1.70;;;;;;;9.05;100.00;100044.59;4997893;28;20037;-87
2023/03/31 01:35:35;;;;;;;13.75;1.98;;;;;;;9.05;100.00;100039.19;4998158;28;20026;-87
2023/03/31 01:38:16;;;;;;;12.25;1.40;;;;;;;9.09;100.00;100045.81;5015281;28;20025;-86
2023/03/31 01:41:00;;;;;;;12.75;1.90;;;;;;;9.13;100.00;100035.34;4997704;28;20029;-86
2023/03/31 01:43:57;;;;;;;11.47;1.83;;;;;;;9.14;100.00;100037.00;4997167;28;20053;-86
2023/03/31 01:46:40;;;;;;;12.20;2.00;;;;;;;9.13;100.00;100029.94;4977498;28;20045;-86
2023/03/31 01:49:27;;;;;;;13.82;2.20;;;;;;;9.08;100.00;100017.09;4997610;28;20030;-86
2023/03/31 01:52:32;;;;;;;15.52;2.17;;;;;;;9.12;100.00;100002.06;4997223;28;20042;-86
2023/03/31 01:55:10;;;;;;;15.85;2.08;;;;;;;9.17;100.00;100003.25;5014626;28;20109;-85
2023/03/31 01:57:46;;;;;;;14.33;1.97;;;;;;;9.13;100.00;99983.94;5014133;28;20191;-86
2023/03/31 02:00:15;;;;;;;20.67;2.80;;;;;;;9.08;100.00;99979.19;4998234;28;20026;-86
2023/03/31 02:02:56;;;;;;;14.40;2.40;;;;;;;9.05;100.00;99968.00;5014695;28;20026;-86
2023/03/31 02:05:34;;;;;;;13.60;2.20;;;;;;;9.03;100.00;99965.50;4996751;28;20033;-86
2023/03/31 02:08:11;;;;;;;10.63;2.58;;;;;;;9.02;100.00;99963.03;4997611;28;20041;-85
2023/03/31 02:10:42;;;;;;;13.83;2.13;;;;;;;8.98;100.00;99946.44;4996929;28;20034;-85
2023/03/31 02:13:11;;;;;;;10.80;2.00;;;;;;;9.01;100.00;99932.47;4997182;28;20109;-85
2023/03/31 02:15:40;;;;;;;15.45;2.25;;;;;;;8.98;100.00;99919.38;5014788;28;20029;-85
2023/03/31 02:18:10;;;;;;;12.85;1.90;;;;;;;8.98;100.00;99918.56;5014419;28;20501;-85
2023/03/31 02:20:48;;;;;;;18.33;2.47;;;;;;;8.96;100.00;99910.66;5014277;28;20026;-85
2023/03/31 02:23:15;;;;;;;18.47;2.10;;;;;;;9.00;100.00;99905.63;4997263;28;20033;-85
2023/03/31 02:25:50;;;;;;;14.23;2.28;;;;;;;8.99;100.00;99895.84;5014502;28;20026;-85
2023/03/31 02:28:24;;;;;;;18.70;3.05;;;;;;;8.99;100.00;99891.28;4997296;28;20032;-85
2023/03/31 02:30:58;;;;;;;18.05;2.33;;;;;;;9.01;100.00;99878.34;4996758;28;20041;-85
2023/03/31 02:33:24;;;;;;;26.13;2.45;;;;;;;9.01;100.00;99864.81;4997384;28;20515;-85
2023/03/31 02:35:50;;;;;;;19.23;2.17;;;;;;;9.01;100.00;99858.59;4996762;28;20029;-85
2023/03/31 02:38:16;;;;;;;17.90;2.40;;;;;;;9.02;100.00;99849.41;4996408;28;20428;-85
2023/03/31 02:40:42;;;;;;;17.20;2.95;;;;;;;9.02;100.00;99831.31;4996957;28;20061;-85
2023/03/31 02:43:07;;;;;;;20.83;3.00;;;;;;;9.04;100.00;99822.94;4980234;28;20482;-85
2023/03/31 02:45:45;;;;;;;18.47;2.77;;;;;;;9.04;100.00;99831.06;4979551;28;20034;-85
2023/03/31 02:48:36;;;;;;;14.07;2.22;;;;;;;9.03;100.00;99824.00;5014409;28;20038;-85
2023/03/31 02:51:07;;;;;;;22.05;2.45;;;;;;;9.04;100.00;99812.94;4996833;28;20076;-85
2023/03/31 02:53:54;;;;;;;21.75;2.75;;;;;;;9.05;100.00;99798.38;5014096;28;20462;-86
2023/03/31 02:56:35;;;;;;;23.42;3.03;;;;;;;9.02;100.00;99796.13;4996999;28;20111;-85
2023/03/31 02:59:15;;;;;;;19.20;2.88;;;;;;;9.03;100.00;99789.63;4996505;28;20034;-85
2023/03/31 03:02:06;;;;;;;18.85;2.55;;;;;;;9.03;100.00;99773.41;4996710;28;20462;-85
2023/03/31 03:04:42;;;;;;;10.50;2.40;;;;;;;9.03;100.00;99768.00;4997510;28;20076;-85
2023/03/31 03:07:18;;;;;;;21.10;2.15;;;;;;;9.02;100.00;99771.78;4996778;28;20033;-85
2023/03/31 03:10:07;;;;;;;17.85;2.47;;;;;;;9.02;100.00;99774.47;5014492;28;20041;-85
2023/03/31 03:12:43;;;;;;;13.73;2.30;;;;;;;9.01;100.00;99762.00;4966699;28;20034;-85
2023/03/31 03:15:16;;;;;;;12.70;2.25;;;;;;;9.00;100.00;99764.94;4996581;28;20026;-85
2023/03/31 03:17:47;;;;;;;24.63;2.40;;;;;;;9.00;100.00;99752.22;5014086;28;20029;-84
2023/03/31 03:20:15;;;;;;;26.33;3.60;;;;;;;8.99;100.00;99747.03;4996209;28;20040;-85
2023/03/31 03:22:42;;;;;;;21.50;3.17;;;;;;;8.99;100.00;99741.63;4996199;28;20030;-85
2023/03/31 03:25:11;;;;;;;21.60;2.20;;;;;;;8.97;100.00;99738.34;4996532;28;20030;-85
2023/03/31 03:27:38;;;;;;;15.90;2.08;;;;;;;8.98;100.00;99745.41;4996155;28;20135;-85
2023/03/31 03:30:06;;;;;;;19.33;2.10;;;;;;;8.98;100.00;99740.81;4995800;28;20030;-85
2023/03/31 03:32:32;;;;;;;14.52;2.22;;;;;;;8.97;100.00;99751.88;4996123;28;20026;-85
2023/03/31 03:35:00;;;;;;;19.98;3.03;;;;;;;8.95;100.00;99742.09;4996496;28;20065;-85
2023/03/31 03:37:28;;;;;;;12.75;2.08;;;;;;;8.95;100.00;99733.97;4980278;28;20038;-85
2023/03/31 03:39:53;;;;;;;17.88;2.30;;;;;;;8.97;100.00;99728.34;5014270;28;20450;-85
2023/03/31 03:42:19;;;;;;;16.40;2.30;;;;;;;8.93;100.00;99717.16;4963618;28;20064;-85
2023/03/31 03:44:44;;;;;;;17.52;2.72;;;;;;;8.94;100.00;99709.88;4979877;28;20437;-85
2023/03/31 03:47:10;;;;;;;19.57;2.20;;;;;;;8.93;100.00;99697.41;4996223;28;20382;-84
2023/03/31 03:49:35;;;;;;;20.73;2.07;;;;;;;8.92;100.00;99695.75;5012889;28;20477;-84
2023/03/31 03:52:01;;;;;;;18.10;1.93;;;;;;;8.86;100.00;99685.84;4995697;28;20034;-84
2023/03/31 03:54:26;;;;;;;19.20;2.22;;;;;;;8.84;100.00;99683.38;4995611;28;20487;-84
2023/03/31 03:56:52;;;;;;;18.50;2.47;;;;;;;8.84;100.00;99674.44;4982454;28;20022;-84
2023/03/31 03:59:17;;;;;;;14.70;2.00;;;;;;;8.82;100.00;99669.28;4983330;28;20038;-84
2023/03/31 04:01:42;;;;;;;18.70;1.73;;;;;;;8.82;100.00;99663.88;4999977;28;20037;-84
2023/03/31 04:04:08;;;;;;;14.35;2.10;;;;;;;8.78;100.00;99657.28;4983344;28;20038;-84
2023/03/31 04:06:36;;;;;;;16.37;1.83;;;;;;;8.77;100.00;99651.03;4999416;28;20026;-84
2023/03/31 04:09:02;;;;;;;18.15;1.70;;;;;;;8.75;100.00;99636.94;5015772;28;20034;-84
2023/03/31 04:11:30;;;;;;;16.02;2.85;;;;;;;8.74;100.00;99623.63;4999628;28;20115;-85
2023/03/31 04:13:55;;;;;;;15.20;1.60;;;;;;;8.74;100.00;99629.88;4983401;28;20131;-84
2023/03/31 04:16:21;;;;;;;14.35;1.92;;;;;;;8.72;100.00;99615.75;4982823;28;20061;-85
2023/03/31 04:18:47;;;;;;;8.57;1.77;;;;;;;8.71;100.00;99608.72;4999057;28;20049;-85
2023/03/31 04:21:21;;;;;;;14.30;1.58;;;;;;;8.71;100.00;99603.31;4999150;28;20026;-84
2023/03/31 04:23:48;;;;;;;14.25;1.83;;;;;;;8.71;100.00;99599.75;4999235;28;20030;-85
2023/03/31 04:26:15;;;;;;;14.68;2.33;;;;;;;8.73;100.00;99594.97;4999000;28;20029;-85
2023/03/31 04:28:49;;;;;;;13.40;1.80;;;;;;;8.73;100.00;99600.38;4998984;28;20367;-85
2023/03/31 04:31:23;;;;;;;16.17;1.65;;;;;;;8.70;100.00;99576.50;4984065;28;20045;-85
2023/03/31 04:33:54;;;;;;;13.35;1.50;;;;;;;8.69;100.00;99577.53;4999113;28;20029;-85
2023/03/31 04:36:20;;;;;;;14.90;1.67;;;;;;;8.67;100.00;99566.16;4983819;28;20038;-85
2023/03/31 04:38:53;;;;;;;14.68;1.90;;;;;;;8.66;100.00;99561.78;4998954;28;20026;-85
2023/03/31 04:41:19;;;;;;;15.68;1.70;;;;;;;8.66;100.00;99564.50;4999225;28;20087;-85
2023/03/31 04:43:45;;;;;;;14.00;1.42;;;;;;;8.65;100.00;99549.31;5016952;28;20137;-85
2023/03/31 04:46:10;;;;;;;16.23;1.70;;;;;;;8.62;100.00;99539.78;4998914;28;20040;-85
2023/03/31 04:48:36;;;;;;;7.83;1.50;;;;;;;8.60;100.00;99537.31;4982435;28;20030;-85
2023/03/31 04:51:02;;;;;;;15.90;1.33;;;;;;;8.62;100.00;99528.16;4999188;28;20431;-85
2023/03/31 04:53:27;;;;;;;11.03;1.30;;;;;;;8.59;100.00;99534.84;4998782;28;20030;-85
2023/03/31 04:55:52;;;;;;;8.55;1.30;;;;;;;8.60;100.00;99520.28;4998581;28;20026;-85
2023/03/31 04:58:18;;;;;;;12.35;1.33;;;;;;;8.59;100.00;99518.63;4982358;28;20459;-85
2023/03/31 05:00:44;;;;;;;14.70;1.50;;;;;;;8.60;100.00;99523.00;4982334;28;20038;-85
2023/03/31 05:03:09;;;;;;;15.00;1.85;;;;;;;8.61;100.00;99527.34;4982337;28;20125;-84
2023/03/31 05:05:35;;;;;;;13.90;1.60;;;;;;;8.58;100.00;99517.81;4998394;28;20022;-85
2023/03/31 05:08:04;;;;;;;10.47;1.60;;;;;;;8.57;100.00;99510.75;4997599;28;20033;-84
2023/03/31 05:10:30;;;;;;;8.75;1.58;;;;;;;8.55;100.00;99493.16;5014597;28;20030;-85
2023/03/31 05:12:55;;;;;;;9.25;1.58;;;;;;;8.55;100.00;99490.44;4998321;28;20390;-85
2023/03/31 05:15:23;;;;;;;12.10;1.93;;;;;;;8.54;100.00;99486.09;4998124;28;20029;-85
2023/03/31 05:17:49;;;;;;;8.05;1.23;;;;;;;8.50;100.00;99482.22;5016220;28;20029;-85
2023/03/31 05:20:18;;;;;;;9.05;1.23;;;;;;;8.49;100.00;99484.09;4997804;28;20029;-84
2023/03/31 05:22:45;;;;;;;11.90;1.50;;;;;;;8.49;100.00;99473.28;4998095;28;20057;-84
2023/03/31 05:25:17;;;;;;;8.50;1.65;;;;;;;8.49;100.00;99475.16;4998001;28;20030;-84
2023/03/31 05:27:44;;;;;;;10.97;1.80;;;;;;;8.49;100.00;99467.03;5015936;28;20061;-85
2023/03/31 05:30:09;;;;;;;10.88;1.60;;;;;;;8.46;100.00;99457.53;4997818;28;20465;-85
2023/03/31 05:32:35;;;;;;;9.38;1.70;;;;;;;8.46;100.00;99456.69;4981750;28;20121;-84
2023/03/31 05:35:01;;;;;;;8.70;1.30;;;;;;;8.48;100.00;99457.31;4981713;28;20033;-85
2023/03/31 05:37:31;;;;;;;14.00;1.42;;;;;;;8.46;100.00;99451.28;5014986;28;20496;-85
2023/03/31 05:40:03;;;;;;;9.47;1.40;;;;;;;8.46;100.00;99454.84;5014236;28;20022;-86
2023/03/31 05:42:29;;;;;;;7.55;1.42;;;;;;;8.46;100.00;99462.94;4997643;28;20054;-86
2023/03/31 05:44:57;;;;;;;12.50;1.58;;;;;;;8.45;100.00;99455.88;5015095;28;20018;-86
2023/03/31 05:47:23;;;;;;;15.88;1.70;;;;;;;8.45;100.00;99458.59;4997575;28;20025;-84
2023/03/31 05:49:48;;;;;;;10.80;1.50;;;;;;;8.45;100.00;99447.78;4997650;28;20030;-85
2023/03/31 05:52:13;;;;;;;9.20;1.70;;;;;;;8.45;100.00;99444.25;4997472;28;20083;-85
2023/03/31 05:54:41;;;;;;;10.93;1.60;;;;;;;8.43;100.00;99442.56;5014612;28;20030;-86
2023/03/31 05:57:07;;;;;;;18.67;1.58;;;;;;;8.42;100.00;99435.50;4997271;28;20022;-85
2023/03/31 05:59:34;;;;;;;10.30;1.60;;;;;;;8.45;100.00;99444.25;4997311;28;20613;-85
2023/03/31 06:02:00;;;;;;;10.65;1.80;;;;;;;8.45;100.00;99423.44;4961955;28;20072;-85
2023/03/31 06:04:26;;;;;;;14.73;1.50;;;;;;;8.44;100.00;99429.91;4997262;28;20065;-85
2023/03/31 06:06:52;;;;;;;11.85;1.60;;;;;;;8.46;100.00;99430.50;4996965;28;20022;-85
2023/03/31 06:09:18;;;;;;;11.15;1.80;;;;;;;8.48;100.00;99406.75;4996393;28;20033;-85
2023/03/31 06:11:46;;;;;;;13.07;1.60;;;;;;;8.48;100.00;99398.66;4996386;28;20113;-85
2023/03/31 06:14:18;;;;;;;8.43;1.60;;;;;;;8.51;100.00;99395.47;4997544;28;20065;-86
2023/03/31 06:16:43;;;;;;;13.15;2.00;;;;;;;8.53;100.00;99385.25;4996302;28;20034;-86
2023/03/31 06:19:11;;;;;;;6.18;1.60;;;;;;;8.55;100.00;99385.00;4996448;28;20033;-86
2023/03/31 06:21:42;;;;;;;14.55;1.85;;;;;;;8.55;100.00;99388.53;5013793;28;20038;-87
2023/03/31 06:24:08;;;;;;;9.65;1.60;;;;;;;8.53;100.00;99373.59;4996434;28;20029;-85
2023/03/31 06:26:34;;;;;;;11.43;2.40;;;;;;;8.53;100.00;99371.75;4996133;28;20470;-87
2023/03/31 06:29:00;;;;;;;16.95;2.40;;;;;;;8.55;100.00;99369.59;4980630;28;20121;-86
2023/03/31 06:31:28;;;;;;;9.33;2.00;;;;;;;8.54;100.00;99378.78;4996545;28;20113;-86
2023/03/31 06:33:58;;;;;;;22.23;2.33;;;;;;;8.59;100.00;99411.34;4996811;28;20033;-86
2023/03/31 06:36:23;;;;;;;11.77;2.33;;;;;;;8.62;100.00;99399.19;4996385;28;20029;-86
2023/03/31 06:38:49;;;;;;;17.73;2.38;;;;;;;8.64;100.00;99372.75;4980191;28;20038;-85
2023/03/31 06:41:17;;;;;;;9.10;2.20;;;;;;;8.67;100.00;99371.47;5014156;28;20037;-85
2023/03/31 06:43:43;;;;;;;13.88;2.40;;;;;;;8.68;100.00;99375.78;4995883;28;20065;-85
2023/03/31 06:46:08;;;;;;;15.02;2.60;;;;;;;8.71;100.00;99380.72;4996030;28;20022;-86
2023/03/31 06:48:34;;;;;;;12.57;2.60;;;;;;;8.71;100.00;99386.13;4996573;28;20026;-85
2023/03/31 06:51:01;;;;;;;17.42;2.67;;;;;;;8.72;100.00;99385.09;4996333;28;20460;-84
2023/03/31 06:53:28;;;;;;;14.60;2.47;;;;;;;8.73;100.00;99367.81;4996205;28;20124;-85
2023/03/31 06:55:53;;;;;;;23.27;2.80;;;;;;;8.73;100.00;99363.22;4995771;28;20026;-84
2023/03/31 06:58:19;;;;;;;14.93;2.63;;;;;;;8.72;100.00;99371.56;4996941;28;20041;-84
2023/03/31 07:00:45;;;;;;;16.73;2.60;;;;;;;8.74;100.00;99369.44;4980167;28;20038;-84
2023/03/31 07:03:11;;;;;;;21.48;3.42;;;;;;;8.76;100.00;99372.72;4963615;28;20061;-84
2023/03/31 07:05:36;;;;;;;32.85;3.78;;;;;;;8.70;100.00;99381.81;4963472;28;20493;-83
2023/03/31 07:08:03;;;;;;;23.83;3.23;;;;;;;8.75;100.00;99379.19;4979766;28;20038;-84
2023/03/31 07:10:32;;;;;;;16.83;3.03;;;;;;;8.79;100.00;99380.38;4996124;28;20029;-84
2023/03/31 07:12:58;;;;;;;15.95;2.90;;;;;;;8.79;100.00;99358.72;4980384;28;20038;-84
2023/03/31 07:15:25;;;;;;;28.37;3.43;;;;;;;8.81;100.00;99355.78;4996119;28;20371;-83
2023/03/31 07:17:52;;;;;;;23.17;3.13;;;;;;;8.83;100.00;99357.19;4996050;28;20030;-84
2023/03/31 07:20:21;;;;;;;24.70;2.92;;;;;;;8.84;100.00;99348.00;4995909;28;20037;-83
2023/03/31 07:22:47;;;;;;;23.50;2.75;;;;;;;8.84;100.00;99342.59;5013666;28;20042;-83
2023/03/31 07:25:16;;;;;;;18.58;3.30;;;;;;;8.85;100.00;99346.94;5013409;28;20069;-83
2023/03/31 07:27:42;;;;;;;13.17;1.97;;;;;;;8.86;100.00;99345.88;4996366;28;20026;-83
2023/03/31 07:30:11;;;;;;;15.40;2.20;;;;;;;8.85;100.00;99338.03;4995759;28;20038;-83
2023/03/31 07:32:40;;;;;;;15.88;2.58;;;;;;;8.81;100.00;99336.84;4999561;28;20030;-83
2023/03/31 07:35:10;;;;;;;11.27;2.00;;;;;;;8.83;100.00;99338.25;5000178;28;20038;-84
2023/03/31 07:37:36;;;;;;;12.23;1.90;;;;;;;8.85;100.00;99338.03;5017540;28;20034;-84
2023/03/31 07:40:05;;;;;;;10.73;2.13;;;;;;;8.86;100.00;99334.22;4983985;28;20037;-84
2023/03/31 07:42:36;;;;;;;13.07;1.80;;;;;;;8.90;100.00;99340.81;4983670;28;20057;-83
2023/03/31 07:45:12;;;;;;;;;;;;;;;;;;;;;
2023/03/31 07:47:38;;;;;;;23.88;3.15;;;;;;;8.97;100.00;99330.66;5001443;28;20029;-84
2023/03/31 07:50:05;;;;;;;22.50;2.83;;;;;;;9.03;100.00;99334.28;4999184;28;20117;-84
2023/03/31 07:52:30;;;;;;;13.77;2.70;;;;;;;9.15;100.00;99328.81;4999468;28;20462;-83
2023/03/31 07:54:56;;;;;;;17.65;3.40;;;;;;;9.20;100.00;99329.75;4999604;28;20033;-83
2023/03/31 07:57:21;;;;;;;27.13;3.47;;;;;;;9.26;100.00;99323.34;4999810;28;20026;-83
2023/03/31 07:59:47;;;;;;;24.67;4.57;;;;;;;9.28;100.00;99321.22;4999438;28;20037;-83
2023/03/31 08:02:15;;;;;;;27.43;3.50;;;;;;;9.37;100.00;99318.13;4984045;28;20232;-84
2023/03/31 08:04:44;;;;;;;28.05;3.75;;;;;;;9.44;100.00;99316.88;4999456;28;20029;-83
2023/03/31 08:07:11;;;;;;;23.75;3.65;;;;;;;9.54;100.00;99310.00;4998968;28;20490;-83
2023/03/31 08:09:41;;;;;;;27.73;4.13;;;;;;;9.52;100.00;99293.19;5016614;28;20470;-83
2023/03/31 08:12:07;;;;;;;28.00;3.93;;;;;;;9.54;100.00;99307.31;5016635;28;20042;-83
2023/03/31 08:14:33;;;;;;;25.55;4.82;;;;;;;9.58;100.00;99303.84;4983587;28;20092;-83
2023/03/31 08:16:59;;;;;;;24.52;3.88;;;;;;;9.70;100.00;99302.94;5000126;28;20358;-83
2023/03/31 08:19:25;;;;;;;29.85;3.80;;;;;;;9.73;100.00;99302.44;5017307;28;20022;-83
2023/03/31 08:21:51;;;;;;;23.80;3.50;;;;;;;9.72;100.00;99298.91;4998921;28;20033;-83
2023/03/31 08:24:17;;;;;;;26.67;4.03;;;;;;;9.77;100.00;99296.28;4982927;28;20033;-83
2023/03/31 08:26:42;;;;;;;31.15;4.15;;;;;;;9.80;100.00;99294.97;4998773;28;20025;-83
2023/03/31 08:29:08;;;;;;;28.80;4.27;;;;;;;9.79;100.00;99291.44;4998683;28;20037;-83
2023/03/31 08:31:33;;;;;;;26.67;3.92;;;;;;;9.84;100.00;99293.41;4966890;28;20038;-84
2023/03/31 08:33:59;;;;;;;31.13;4.40;;;;;;;9.90;100.00;99294.28;4966354;28;20436;-84
2023/03/31 08:36:25;;;;;;;21.33;3.30;;;;;;;9.92;100.00;99295.69;4982655;28;20465;-83
2023/03/31 08:38:52;;;;;;;30.38;3.80;;;;;;;9.93;100.00;99300.03;5015987;28;20320;-84
2023/03/31 08:41:49;;;;;;;28.55;3.60;;;;;;;9.98;100.00;99302.81;4998497;28;20320;-84
2023/03/31 08:44:24;;;;;;;21.55;3.38;;;;;;;9.92;100.00;99294.84;4998435;28;20045;-83
2023/03/31 08:46:53;;;;;;;20.50;3.33;;;;;;;9.88;100.00;99293.75;5015905;28;20386;-85
2023/03/31 08:49:22;;;;;;;31.40;3.80;;;;;;;9.90;100.00;99297.00;4998497;28;20072;-83
2023/03/31 08:51:53;;;;;;;27.10;4.88;;;;;;;9.96;100.00;99293.28;4982216;28;20057;-84
2023/03/31 08:54:33;;;;;;;35.80;4.03;;;;;;;10.03;100.00;99298.56;4982664;28;20041;-84
2023/03/31 08:57:00;;;;;;;29.08;3.40;;;;;;;9.98;100.00;99291.97;4998516;28;20018;-83
2023/03/31 08:59:35;;;;;;;16.27;2.77;;;;;;;10.03;100.00;99285.00;4998664;28;20103;-84
2023/03/31 09:02:38;;;;;;;22.40;3.53;;;;;;;10.06;100.00;99285.31;4998549;28;20083;-83
2023/03/31 09:05:16;;;;;;;16.77;3.08;;;;;;;10.08;100.00;99298.59;4998920;28;20041;-84
2023/03/31 09:07:54;;;;;;;13.00;2.17;;;;;;;10.20;100.00;99291.19;4998089;28;20537;-84
2023/03/31 09:10:38;;;;;;;28.85;3.13;;;;;;;10.13;100.00;99285.16;4998562;28;20059;-84
2023/03/31 09:13:33;;;;;;;22.47;3.13;;;;;;;10.12;100.00;99288.91;4998421;28;20133;-83
2023/03/31 09:16:11;;;;;;;22.98;2.60;;;;;;;10.06;100.00;99282.59;4998395;28;20073;-84
2023/03/31 09:18:39;;;;;;;22.30;2.88;;;;;;;10.06;100.00;99266.34;4998681;28;20030;-84
2023/03/31 09:21:30;;;;;;;19.27;2.40;;;;;;;10.15;100.00;99267.53;4998073;28;20087;-84
2023/03/31 09:24:18;;;;;;;20.95;3.30;;;;;;;10.27;100.00;99269.31;4997680;28;20478;-84
2023/03/31 09:26:51;;;;;;;20.20;2.40;;;;;;;10.08;100.00;99271.50;5015190;28;20070;-84
2023/03/31 09:29:29;;;;;;;17.20;2.65;;;;;;;10.14;100.00;99263.22;5013978;28;20124;-84
2023/03/31 09:32:20;;;;;;;19.02;3.33;;;;;;;10.18;100.00;99261.59;4998003;28;20037;-84
2023/03/31 09:34:51;;;;;;;17.50;2.83;;;;;;;10.29;100.00;99256.31;4998152;28;20485;-84
2023/03/31 09:37:16;;;;;;;19.75;2.72;;;;;;;10.50;100.00;99260.16;4998611;28;20524;-84
2023/03/31 09:39:42;;;;;;;18.77;2.70;;;;;;;10.70;100.00;99257.66;4981266;28;20038;-84
2023/03/31 09:42:13;;;;;;;13.40;2.38;;;;;;;10.93;100.00;99250.28;4980158;28;20498;-84
2023/03/31 09:44:50;;;;;;;17.25;2.15;;;;;;;11.08;100.00;99256.94;4998060;28;20045;-84
2023/03/31 09:47:24;;;;;;;15.43;2.47;;;;;;;11.15;100.00;99231.22;4981880;28;20125;-84
2023/03/31 09:49:49;;;;;;;15.90;2.35;;;;;;;11.12;100.00;99249.91;4997788;28;20129;-84
2023/03/31 09:52:36;;;;;;;12.67;2.57;;;;;;;11.28;100.00;99265.25;4997370;28;20045;-84
2023/03/31 09:55:21;;;;;;;11.48;1.83;;;;;;;11.45;100.00;99245.28;4997043;28;20461;-84
2023/03/31 09:57:47;;;;;;;13.55;2.35;;;;;;;11.58;100.00;99237.50;4997092;28;20036;-84
2023/03/31 10:00:18;;;;;;;14.50;2.03;;;;;;;11.68;100.00;99244.09;4980679;28;20471;-84
2023/03/31 10:02:49;;;;;;;13.65;1.83;;;;;;;11.63;100.00;99230.47;4997953;28;20022;-84
2023/03/31 10:05:51;;;;;;;12.18;1.80;;;;;;;11.61;100.00;99232.63;4997368;28;20022;-84
2023/03/31 10:08:16;;;;;;;11.52;2.08;;;;;;;11.71;100.00;99232.69;4993358;28;20038;-84
2023/03/31 10:10:54;;;;;;;12.70;2.20;;;;;;;11.71;100.00;99238.94;5014832;28;20083;-84
2023/03/31 10:13:25;;;;;;;15.95;2.35;;;;;;;11.56;100.00;99225.28;5014829;28;20037;-84
2023/03/31 10:16:01;;;;;;;13.27;2.03;;;;;;;11.44;100.00;99246.34;5014534;28;20060;-84
2023/03/31 10:18:33;;;;;;;8.15;1.60;;;;;;;11.37;100.00;99236.53;4997592;28;20025;-84
2023/03/31 10:20:59;;;;;;;11.95;1.60;;;;;;;11.32;100.00;99239.19;4996533;28;20026;-84
2023/03/31 10:23:34;;;;;;;11.70;1.87;;;;;;;11.44;100.00;99230.06;4980320;28;20040;-85
2023/03/31 10:26:01;;;;;;;11.37;1.93;;;;;;;11.63;100.00;99227.75;4997063;28;20289;-85
2023/03/31 10:28:31;;;;;;;12.02;1.73;;;;;;;11.70;100.00;99210.13;4996665;28;20428;-84
2023/03/31 10:31:02;;;;;;;8.02;1.95;;;;;;;11.40;100.00;99217.00;4997191;28;20072;-84
2023/03/31 10:33:43;;;;;;;16.80;2.20;;;;;;;11.12;100.00;99214.63;4996410;28;20038;-85
2023/03/31 10:36:25;;;;;;;9.85;1.45;;;;;;;10.79;100.00;99217.31;5015141;28;20038;-84
2023/03/31 10:38:52;;;;;;;12.70;1.97;;;;;;;10.73;100.00;99210.19;4997032;28;20052;-84
2023/03/31 10:41:21;;;;;;;9.63;2.10;;;;;;;10.56;100.00;99209.50;4996488;28;20041;-85
2023/03/31 10:43:54;;;;;;;18.38;2.63;;;;;;;10.56;100.00;99206.78;4996578;28;20180;-84
2023/03/31 10:46:37;;;;;;;9.88;1.58;;;;;;;10.71;100.00;99199.59;4997237;28;20034;-85
2023/03/31 10:49:14;;;;;;;11.80;1.70;;;;;;;11.02;100.00;99202.59;5014047;28;20033;-84
2023/03/31 10:51:48;;;;;;;15.98;2.45;;;;;;;11.32;100.00;99190.31;5014749;28;20030;-85
2023/03/31 10:54:14;;;;;;;11.95;2.17;;;;;;;11.44;100.00;99189.31;4996411;28;20030;-84
2023/03/31 10:56:44;;;;;;;13.57;2.13;;;;;;;11.59;100.00;99187.53;4996838;28;20107;-85
2023/03/31 10:59:17;;;;;;;11.32;1.60;;;;;;;11.53;100.00;99182.31;4996242;28;20030;-85
2023/03/31 11:01:50;;;;;;;14.10;2.20;;;;;;;11.23;100.00;99200.88;5013694;28;20034;-84
2023/03/31 11:04:37;;;;;;;14.95;2.50;;;;;;;10.91;100.00;99192.75;5013967;28;20540;-84
2023/03/31 11:07:31;;;;;;;11.65;2.00;;;;;;;10.65;100.00;99178.94;4995441;28;20037;-84
2023/03/31 11:10:30;;;;;;;14.30;2.20;;;;;;;10.34;100.00;99194.88;4996314;28;20033;-84
2023/03/31 11:13:14;;;;;;;17.08;2.13;;;;;;;10.23;100.00;99186.84;5013448;28;20034;-85
2023/03/31 11:16:11;;;;;;;10.35;1.73;;;;;;;10.23;100.00;99195.84;4995893;28;20033;-84
2023/03/31 11:19:04;;;;;;;13.30;2.05;;;;;;;10.26;100.00;99187.19;4996118;28;20418;-85
2023/03/31 11:21:33;;;;;;;24.33;2.95;;;;;;;10.56;100.00;99183.19;4996109;28;20120;-85
2023/03/31 11:24:38;;;;;;;16.27;2.30;;;;;;;10.57;100.00;99179.41;4996271;28;20034;-85
2023/03/31 11:27:46;;;;;;;16.65;2.30;;;;;;;10.53;100.00;99170.94;4996156;28;20026;-84
2023/03/31 11:30:23;;;;;;;13.60;2.40;;;;;;;10.69;100.00;99176.53;4996175;28;20488;-85
2023/03/31 11:33:23;;;;;;;13.70;2.35;;;;;;;10.86;100.00;99165.56;4995457;28;20493;-85
2023/03/31 11:35:55;;;;;;;12.30;2.60;;;;;;;11.01;100.00;99154.84;5013456;28;20040;-84
2023/03/31 11:38:28;;;;;;;16.67;2.70;;;;;;;10.88;100.00;99158.81;4995923;28;20033;-85
2023/03/31 11:41:07;;;;;;;17.90;2.85;;;;;;;10.85;100.00;99153.91;4995727;28;20034;-85
2023/03/31 11:43:39;;;;;;;10.55;1.92;;;;;;;10.90;100.00;99131.41;4994420;28;20380;-85
2023/03/31 11:46:15;;;;;;;15.00;2.60;;;;;;;11.01;100.00;99157.56;4995198;28;20537;-85